Terrace Airport
CYXT : now visible

Airfield :











YOU CAN JOIN US ON...

 
LOGIN :

Register | Disclaimer

   EN    FR    IT 

 









Legend :    VFR   Marginal VFR   IFR   Intensive IFR   Very Intensive IFR
Visi :
Ceiling :
>= 8 km
>= 3000ft
5 to 8 km
1000 to 3000 ft
1500m to 5 km
500 to 1000 ft
800 to 1500m
200 to 500 ft
< 800m
< 200 ft
Symbols :   Thunderstorms  Fog  Heavy snow  Heavy precipitations  Wind > 20 kt






- Airport Elevation : 713 ft
- IATA code : YXT


CYXT - Terrace

CURRENT METAR :
  • 051900Z 35006KT 10SM FEW001 SCT009 OVC160 M01/M02 A3009 RMK SF1SF2AC5 SLP203

EXPIRED METARs :
  • 051800Z CCA 34006KT 10SM FEW001 FEW005 SCT010 OVC180 M01/M02 A3010 RMK SF1SF1SC2AS5 SF TR SLP206
  • 051717Z 36005KT 10SM FEW003 SCT010 OVC200 M01/M02 A3009 RMK SF1SC3CI4 SLP203

TAF TAF CYXT
Valid from the 05 at 19:00 until the 06 at 07:00 UTC


051838Z 0519/0607 34005KT P6SM FEW005 SCT010 OVC180
TEMPO 0519/0522 BKN008
BECMG 0520/0522 01010KT
FM052200 01010KT P6SM SCT160 RMK NXT FCST BY 060100Z



MET'MAP, your aeronautical weather chart ! - Copyright ORBIFLY December 2007 - Disclaimer

ORBIFLY MET'MAP TEAM :

Programming & Development : Alexandra Zaïnal
Concept & original design : Baudouin d'Aumeries
Assistance for programming : Marc-Olivier Méhu
Technical & hardware support : Manuel Goepfert

Contact : metmap@orbifly.com




SOURCES & CREDITS :

   NOAA       Earth
Advisory